sensor_id;sensor_type;location;lat;lon;timestamp;pressure;altitude;pressure_sealevel;temperature;humidity
5609;BME280;2826;51.354;9.588;2022-08-19T00:01:20;97837.25;;;19.06;99.39
5609;BME280;2826;51.354;9.588;2022-08-19T00:03:47;97839.41;;;19.13;98.64
5609;BME280;2826;51.354;9.588;2022-08-19T00:06:15;97839.75;;;19.19;98.49
5609;BME280;2826;51.354;9.588;2022-08-19T00:08:43;97836.97;;;19.21;98.73
5609;BME280;2826;51.354;9.588;2022-08-19T00:11:11;97836.03;;;19.22;98.72
5609;BME280;2826;51.354;9.588;2022-08-19T00:13:38;97826.22;;;19.24;98.71
5609;BME280;2826;51.354;9.588;2022-08-19T00:16:05;97840.91;;;19.27;98.50
5609;BME280;2826;51.354;9.588;2022-08-19T00:18:33;97836.50;;;19.27;98.35
5609;BME280;2826;51.354;9.588;2022-08-19T00:21:00;97806.91;;;19.14;98.75
5609;BME280;2826;51.354;9.588;2022-08-19T00:23:26;97831.22;;;19.27;98.89
5609;BME280;2826;51.354;9.588;2022-08-19T00:25:55;97823.34;;;19.27;99.48
5609;BME280;2826;51.354;9.588;2022-08-19T00:28:22;97822.38;;;19.28;99.40
5609;BME280;2826;51.354;9.588;2022-08-19T00:30:48;97822.25;;;19.30;99.67
5609;BME280;2826;51.354;9.588;2022-08-19T00:33:17;97816.28;;;19.28;99.80
5609;BME280;2826;51.354;9.588;2022-08-19T00:35:44;97822.13;;;19.31;99.72
5609;BME280;2826;51.354;9.588;2022-08-19T00:38:11;97831.56;;;19.34;100.00
5609;BME280;2826;51.354;9.588;2022-08-19T00:40:38;97825.47;;;19.33;100.00
5609;BME280;2826;51.354;9.588;2022-08-19T00:43:09;97814.94;;;19.33;100.00
5609;BME280;2826;51.354;9.588;2022-08-19T00:45:36;97818.53;;;19.32;99.87
5609;BME280;2826;51.354;9.588;2022-08-19T00:48:03;97811.75;;;19.30;99.88
5609;BME280;2826;51.354;9.588;2022-08-19T00:50:31;97815.69;;;19.36;99.76
5609;BME280;2826;51.354;9.588;2022-08-19T00:52:58;97819.97;;;19.37;99.32
5609;BME280;2826;51.354;9.588;2022-08-19T00:55:26;97812.94;;;19.37;99.61
5609;BME280;2826;51.354;9.588;2022-08-19T00:57:56;97812.41;;;19.43;99.55
5609;BME280;2826;51.354;9.588;2022-08-19T01:00:27;97812.00;;;19.48;99.29
5609;BME280;2826;51.354;9.588;2022-08-19T01:02:54;97805.81;;;19.49;98.83
5609;BME280;2826;51.354;9.588;2022-08-19T01:05:24;97794.91;;;19.54;99.05
5609;BME280;2826;51.354;9.588;2022-08-19T01:07:53;97752.25;;;19.29;98.59
5609;BME280;2826;51.354;9.588;2022-08-19T01:10:24;97793.94;;;19.55;98.63
5609;BME280;2826;51.354;9.588;2022-08-19T01:12:52;97787.97;;;19.53;98.29
5609;BME280;2826;51.354;9.588;2022-08-19T01:15:23;97786.31;;;19.52;98.43
5609;BME280;2826;51.354;9.588;2022-08-19T01:17:53;97782.84;;;19.51;98.93
5609;BME280;2826;51.354;9.588;2022-08-19T01:20:23;97792.22;;;19.44;98.96
5609;BME280;2826;51.354;9.588;2022-08-19T01:22:53;97779.31;;;19.41;99.61
5609;BME280;2826;51.354;9.588;2022-08-19T01:25:24;97787.44;;;19.38;99.40
5609;BME280;2826;51.354;9.588;2022-08-19T01:27:53;97787.25;;;19.29;100.00
5609;BME280;2826;51.354;9.588;2022-08-19T01:30:23;97786.53;;;19.27;100.00
5609;BME280;2826;51.354;9.588;2022-08-19T01:32:51;97792.50;;;19.29;100.00
5609;BME280;2826;51.354;9.588;2022-08-19T01:35:20;97796.78;;;19.30;99.93
5609;BME280;2826;51.354;9.588;2022-08-19T01:37:50;97801.09;;;19.31;100.00
5609;BME280;2826;51.354;9.588;2022-08-19T01:40:21;97801.00;;;19.33;99.90
5609;BME280;2826;51.354;9.588;2022-08-19T01:42:48;97805.03;;;19.37;99.65
5609;BME280;2826;51.354;9.588;2022-08-19T01:45:15;97805.72;;;19.39;99.71
5609;BME280;2826;51.354;9.588;2022-08-19T01:47:42;97795.34;;;19.38;99.85
5609;BME280;2826;51.354;9.588;2022-08-19T01:50:10;97794.53;;;19.37;100.00
5609;BME280;2826;51.354;9.588;2022-08-19T01:52:40;97799.06;;;19.35;99.86
5609;BME280;2826;51.354;9.588;2022-08-19T01:55:09;97798.72;;;19.28;100.00
5609;BME280;2826;51.354;9.588;2022-08-19T01:57:39;97799.41;;;19.30;100.00
5609;BME280;2826;51.354;9.588;2022-08-19T02:00:10;97799.41;;;19.30;100.00
5609;BME280;2826;51.354;9.588;2022-08-19T02:02:37;97800.66;;;19.26;100.00
5609;BME280;2826;51.354;9.588;2022-08-19T02:05:06;97802.44;;;19.26;100.00
5609;BME280;2826;51.354;9.588;2022-08-19T02:07:33;97804.50;;;19.22;100.00
5609;BME280;2826;51.354;9.588;2022-08-19T02:10:02;97810.09;;;19.17;100.00
5609;BME280;2826;51.354;9.588;2022-08-19T02:12:28;97810.34;;;19.14;100.00
5609;BME280;2826;51.354;9.588;2022-08-19T02:14:58;97807.16;;;19.11;100.00
5609;BME280;2826;51.354;9.588;2022-08-19T02:17:26;97805.84;;;19.05;100.00
5609;BME280;2826;51.354;9.588;2022-08-19T02:19:53;97809.19;;;19.07;100.00
5609;BME280;2826;51.354;9.588;2022-08-19T02:22:21;97803.31;;;19.03;100.00
5609;BME280;2826;51.354;9.588;2022-08-19T02:24:48;97798.19;;;19.02;100.00
5609;BME280;2826;51.354;9.588;2022-08-19T02:27:14;97797.34;;;19.01;100.00
5609;BME280;2826;51.354;9.588;2022-08-19T02:29:42;97790.78;;;18.96;100.00
5609;BME280;2826;51.354;9.588;2022-08-19T02:32:10;97788.16;;;18.96;100.00
5609;BME280;2826;51.354;9.588;2022-08-19T02:34:37;97797.84;;;18.95;100.00
5609;BME280;2826;51.354;9.588;2022-08-19T02:37:04;97800.59;;;18.93;100.00
5609;BME280;2826;51.354;9.588;2022-08-19T02:39:31;97803.09;;;18.95;100.00
5609;BME280;2826;51.354;9.588;2022-08-19T02:41:57;97808.59;;;18.92;100.00
5609;BME280;2826;51.354;9.588;2022-08-19T02:44:25;97816.47;;;18.92;100.00
5609;BME280;2826;51.354;9.588;2022-08-19T02:46:51;97814.56;;;18.94;100.00
5609;BME280;2826;51.354;9.588;2022-08-19T02:49:19;97813.00;;;18.91;100.00
5609;BME280;2826;51.354;9.588;2022-08-19T02:51:47;97808.59;;;18.92;100.00
5609;BME280;2826;51.354;9.588;2022-08-19T02:54:14;97803.69;;;18.87;100.00
5609;BME280;2826;51.354;9.588;2022-08-19T02:56:42;97799.66;;;18.83;100.00
5609;BME280;2826;51.354;9.588;2022-08-19T02:59:09;97761.50;;;18.56;100.00
5609;BME280;2826;51.354;9.588;2022-08-19T03:01:38;97797.16;;;18.82;100.00
5609;BME280;2826;51.354;9.588;2022-08-19T03:04:06;97806.84;;;18.81;100.00
5609;BME280;2826;51.354;9.588;2022-08-19T03:06:38;97803.25;;;18.82;100.00
5609;BME280;2826;51.354;9.588;2022-08-19T03:09:05;97808.72;;;18.79;100.00
5609;BME280;2826;51.354;9.588;2022-08-19T03:11:32;97811.50;;;18.77;100.00
5609;BME280;2826;51.354;9.588;2022-08-19T03:14:00;97810.66;;;18.77;100.00
5609;BME280;2826;51.354;9.588;2022-08-19T03:16:29;97817.00;;;18.74;100.00
5609;BME280;2826;51.354;9.588;2022-08-19T03:18:57;97819.50;;;18.76;100.00
5609;BME280;2826;51.354;9.588;2022-08-19T03:21:27;97819.38;;;18.77;100.00
5609;BME280;2826;51.354;9.588;2022-08-19T03:23:56;97824.75;;;18.76;100.00
5609;BME280;2826;51.354;9.588;2022-08-19T03:26:24;97827.25;;;18.77;100.00
5609;BME280;2826;51.354;9.588;2022-08-19T03:28:51;97826.31;;;18.78;100.00
5609;BME280;2826;51.354;9.588;2022-08-19T03:31:20;97822.00;;;18.77;100.00
5609;BME280;2826;51.354;9.588;2022-08-19T03:33:48;97824.63;;;18.77;100.00
5609;BME280;2826;51.354;9.588;2022-08-19T03:36:18;97824.97;;;18.73;100.00
5609;BME280;2826;51.354;9.588;2022-08-19T03:38:50;97822.25;;;18.74;100.00
5609;BME280;2826;51.354;9.588;2022-08-19T03:41:20;97828.47;;;18.73;100.00
5609;BME280;2826;51.354;9.588;2022-08-19T03:43:47;97827.13;;;18.79;100.00
5609;BME280;2826;51.354;9.588;2022-08-19T03:46:17;97831.66;;;18.77;100.00
5609;BME280;2826;51.354;9.588;2022-08-19T03:48:47;97839.53;;;18.77;100.00
5609;BME280;2826;51.354;9.588;2022-08-19T03:51:19;97849.22;;;18.76;100.00
5609;BME280;2826;51.354;9.588;2022-08-19T03:53:46;97849.34;;;18.75;100.00
5609;BME280;2826;51.354;9.588;2022-08-19T03:56:14;97840.84;;;18.71;100.00
5609;BME280;2826;51.354;9.588;2022-08-19T03:58:43;97837.53;;;18.69;100.00
5609;BME280;2826;51.354;9.588;2022-08-19T04:01:13;97835.25;;;18.64;100.00
5609;BME280;2826;51.354;9.588;2022-08-19T04:03:40;97835.63;;;18.60;100.00
5609;BME280;2826;51.354;9.588;2022-08-19T04:06:11;97835.75;;;18.58;100.00
5609;BME280;2826;51.354;9.588;2022-08-19T04:08:38;97827.97;;;18.57;100.00
5609;BME280;2826;51.354;9.588;2022-08-19T04:11:07;97835.63;;;18.60;100.00
5609;BME280;2826;51.354;9.588;2022-08-19T04:13:34;97835.63;;;18.60;100.00
5609;BME280;2826;51.354;9.588;2022-08-19T04:16:04;97844.44;;;18.59;100.00
5609;BME280;2826;51.354;9.588;2022-08-19T04:18:31;97847.31;;;18.56;100.00
5609;BME280;2826;51.354;9.588;2022-08-19T04:20:58;97849.34;;;18.52;100.00
5609;BME280;2826;51.354;9.588;2022-08-19T04:23:26;97851.84;;;18.53;100.00
5609;BME280;2826;51.354;9.588;2022-08-19T04:25:54;97821.78;;;18.35;100.00
5609;BME280;2826;51.354;9.588;2022-08-19T04:28:21;97848.53;;;18.51;100.00
5609;BME280;2826;51.354;9.588;2022-08-19T04:30:50;97834.91;;;18.46;100.00
5609;BME280;2826;51.354;9.588;2022-08-19T04:33:20;97836.81;;;18.44;100.00
5609;BME280;2826;51.354;9.588;2022-08-19T04:35:50;97842.44;;;18.39;100.00
5609;BME280;2826;51.354;9.588;2022-08-19T04:38:19;97837.19;;;18.39;100.00
5609;BME280;2826;51.354;9.588;2022-08-19T04:40:49;97834.91;;;18.35;100.00
5609;BME280;2826;51.354;9.588;2022-08-19T04:43:35;97834.06;;;18.34;100.00
5609;BME280;2826;51.354;9.588;2022-08-19T04:46:04;97842.06;;;18.33;100.00
5609;BME280;2826;51.354;9.588;2022-08-19T04:48:32;97841.00;;;18.35;100.00
5609;BME280;2826;51.354;9.588;2022-08-19T04:50:59;97828.94;;;18.33;100.00
5609;BME280;2826;51.354;9.588;2022-08-19T04:53:27;97834.66;;;18.26;100.00
5609;BME280;2826;51.354;9.588;2022-08-19T04:55:54;97844.44;;;18.24;100.00
5609;BME280;2826;51.354;9.588;2022-08-19T04:58:21;97834.06;;;18.23;100.00
5609;BME280;2826;51.354;9.588;2022-08-19T05:00:48;97840.38;;;18.20;100.00
5609;BME280;2826;51.354;9.588;2022-08-19T05:03:15;97840.97;;;18.24;100.00
5609;BME280;2826;51.354;9.588;2022-08-19T05:05:44;97844.56;;;18.23;100.00
5609;BME280;2826;51.354;9.588;2022-08-19T05:08:16;97853.97;;;18.25;100.00
5609;BME280;2826;51.354;9.588;2022-08-19T05:10:46;97858.16;;;18.28;100.00
5609;BME280;2826;51.354;9.588;2022-08-19T05:13:14;97858.91;;;18.30;100.00
5609;BME280;2826;51.354;9.588;2022-08-19T05:15:41;97828.28;;;18.06;100.00
5609;BME280;2826;51.354;9.588;2022-08-19T05:18:08;97865.06;;;18.29;100.00
5609;BME280;2826;51.354;9.588;2022-08-19T05:20:54;97827.47;;;18.06;100.00
5609;BME280;2826;51.354;9.588;2022-08-19T05:23:39;97871.41;;;18.26;100.00
5609;BME280;2826;51.354;9.588;2022-08-19T05:26:06;97864.47;;;18.25;100.00
5609;BME280;2826;51.354;9.588;2022-08-19T05:28:34;97859.34;;;18.24;100.00
5609;BME280;2826;51.354;9.588;2022-08-19T05:31:01;97848.16;;;18.22;100.00
5609;BME280;2826;51.354;9.588;2022-08-19T05:33:27;97841.69;;;18.14;100.00
5609;BME280;2826;51.354;9.588;2022-08-19T05:35:55;97859.00;;;18.28;100.00
5609;BME280;2826;51.354;9.588;2022-08-19T05:38:22;97854.69;;;18.27;100.00
5609;BME280;2826;51.354;9.588;2022-08-19T05:40:49;97852.06;;;18.27;100.00
5609;BME280;2826;51.354;9.588;2022-08-19T05:43:16;97852.69;;;18.31;100.00
5609;BME280;2826;51.354;9.588;2022-08-19T05:45:43;97853.28;;;18.35;100.00
5609;BME280;2826;51.354;9.588;2022-08-19T05:48:11;97838.25;;;18.37;100.00
5609;BME280;2826;51.354;9.588;2022-08-19T05:50:38;97851.00;;;18.41;100.00
5609;BME280;2826;51.354;9.588;2022-08-19T05:53:07;97851.50;;;18.47;100.00
5609;BME280;2826;51.354;9.588;2022-08-19T05:55:34;97860.19;;;18.59;100.00
5609;BME280;2826;51.354;9.588;2022-08-19T05:58:02;97858.06;;;18.64;99.20
5609;BME280;2826;51.354;9.588;2022-08-19T06:00:29;97859.84;;;18.63;97.58
5609;BME280;2826;51.354;9.588;2022-08-19T06:02:56;97857.34;;;18.73;97.71
5609;BME280;2826;51.354;9.588;2022-08-19T06:05:28;97849.22;;;18.76;97.45
5609;BME280;2826;51.354;9.588;2022-08-19T06:07:55;97822.13;;;18.64;96.97
5609;BME280;2826;51.354;9.588;2022-08-19T06:10:23;97855.88;;;18.92;96.32
5609;BME280;2826;51.354;9.588;2022-08-19T06:12:50;97856.81;;;19.02;95.28
5609;BME280;2826;51.354;9.588;2022-08-19T06:15:17;97857.53;;;19.04;94.62
5609;BME280;2826;51.354;9.588;2022-08-19T06:17:44;97850.88;;;19.00;93.51
5609;BME280;2826;51.354;9.588;2022-08-19T06:20:12;97859.09;;;18.96;92.69
5609;BME280;2826;51.354;9.588;2022-08-19T06:22:40;97864.47;;;18.94;91.18
5609;BME280;2826;51.354;9.588;2022-08-19T06:25:08;97865.91;;;18.98;92.47
5609;BME280;2826;51.354;9.588;2022-08-19T06:27:37;97860.75;;;18.97;89.99
5609;BME280;2826;51.354;9.588;2022-08-19T06:30:05;97862.56;;;18.96;90.77
5609;BME280;2826;51.354;9.588;2022-08-19T06:32:31;97874.63;;;18.99;90.25
5609;BME280;2826;51.354;9.588;2022-08-19T06:34:58;97877.53;;;19.07;89.70
5609;BME280;2826;51.354;9.588;2022-08-19T06:37:25;97878.22;;;19.09;89.17
5609;BME280;2826;51.354;9.588;2022-08-19T06:39:52;97884.53;;;19.18;88.40
5609;BME280;2826;51.354;9.588;2022-08-19T06:42:18;97890.97;;;19.25;87.00
5609;BME280;2826;51.354;9.588;2022-08-19T06:44:47;97891.31;;;19.32;86.75
5609;BME280;2826;51.354;9.588;2022-08-19T06:47:17;97895.63;;;19.33;84.86
5609;BME280;2826;51.354;9.588;2022-08-19T06:49:44;97895.47;;;19.35;83.91
5609;BME280;2826;51.354;9.588;2022-08-19T06:52:12;97899.06;;;19.33;82.76
5609;BME280;2826;51.354;9.588;2022-08-19T06:54:40;97903.63;;;19.31;83.19
5609;BME280;2826;51.354;9.588;2022-08-19T06:57:07;97915.31;;;19.39;82.85
5609;BME280;2826;51.354;9.588;2022-08-19T06:59:39;97921.75;;;19.46;82.89
5609;BME280;2826;51.354;9.588;2022-08-19T07:02:07;97931.31;;;19.47;82.03
5609;BME280;2826;51.354;9.588;2022-08-19T07:04:35;97930.59;;;19.45;82.36
5609;BME280;2826;51.354;9.588;2022-08-19T07:07:06;97918.78;;;19.28;82.62
5609;BME280;2826;51.354;9.588;2022-08-19T07:09:36;97939.56;;;19.42;81.73
5609;BME280;2826;51.354;9.588;2022-08-19T07:12:05;97932.78;;;19.40;81.95
5609;BME280;2826;51.354;9.588;2022-08-19T07:14:34;97937.53;;;19.35;82.19
5609;BME280;2826;51.354;9.588;2022-08-19T07:17:05;97933.84;;;19.37;81.89
5609;BME280;2826;51.354;9.588;2022-08-19T07:19:34;97936.47;;;19.37;81.94
5609;BME280;2826;51.354;9.588;2022-08-19T07:22:02;97934.56;;;19.39;81.82
5609;BME280;2826;51.354;9.588;2022-08-19T07:24:30;97937.88;;;19.41;81.82
5609;BME280;2826;51.354;9.588;2022-08-19T07:26:59;97944.09;;;19.40;81.77
5609;BME280;2826;51.354;9.588;2022-08-19T07:29:29;97950.78;;;19.44;81.75
5609;BME280;2826;51.354;9.588;2022-08-19T07:31:59;97946.13;;;19.48;81.27
5609;BME280;2826;51.354;9.588;2022-08-19T07:34:28;97948.63;;;19.50;81.64
5609;BME280;2826;51.354;9.588;2022-08-19T07:36:56;97960.69;;;19.52;81.42
5609;BME280;2826;51.354;9.588;2022-08-19T07:39:25;97936.34;;;19.39;80.73
5609;BME280;2826;51.354;9.588;2022-08-19T07:41:53;97964.16;;;19.53;82.11
5609;BME280;2826;51.354;9.588;2022-08-19T07:44:20;97927.75;;;19.37;81.86
5609;BME280;2826;51.354;9.588;2022-08-19T07:46:49;97959.00;;;19.63;81.59
5609;BME280;2826;51.354;9.588;2022-08-19T07:49:19;97960.69;;;19.64;81.74
5609;BME280;2826;51.354;9.588;2022-08-19T07:51:47;97953.88;;;19.61;82.34
5609;BME280;2826;51.354;9.588;2022-08-19T07:54:17;97959.72;;;19.65;81.49
5609;BME280;2826;51.354;9.588;2022-08-19T07:56:44;97947.41;;;19.65;81.76
5609;BME280;2826;51.354;9.588;2022-08-19T07:59:11;97947.97;;;19.69;82.68
5609;BME280;2826;51.354;9.588;2022-08-19T08:01:38;97947.22;;;19.78;81.94
5609;BME280;2826;51.354;9.588;2022-08-19T08:04:06;97952.13;;;19.83;81.31
5609;BME280;2826;51.354;9.588;2022-08-19T08:06:53;97965.50;;;19.91;81.69
5609;BME280;2826;51.354;9.588;2022-08-19T08:09:42;97956.03;;;20.00;80.29
5609;BME280;2826;51.354;9.588;2022-08-19T08:12:12;97965.31;;;20.16;80.41
5609;BME280;2826;51.354;9.588;2022-08-19T08:14:42;97964.13;;;20.30;79.52
5609;BME280;2826;51.354;9.588;2022-08-19T08:17:09;97963.97;;;20.43;79.23
5609;BME280;2826;51.354;9.588;2022-08-19T08:19:37;97955.28;;;20.52;78.25
5609;BME280;2826;51.354;9.588;2022-08-19T08:22:07;97954.88;;;20.57;78.07
5609;BME280;2826;51.354;9.588;2022-08-19T08:24:55;97956.03;;;20.64;77.30
5609;BME280;2826;51.354;9.588;2022-08-19T08:27:23;97932.72;;;20.59;77.19
5609;BME280;2826;51.354;9.588;2022-08-19T08:29:51;97963.13;;;20.95;75.89
5609;BME280;2826;51.354;9.588;2022-08-19T08:32:18;97963.84;;;20.97;74.50
5609;BME280;2826;51.354;9.588;2022-08-19T08:34:44;97967.44;;;20.96;75.69
5609;BME280;2826;51.354;9.588;2022-08-19T08:37:11;97968.41;;;20.95;75.83
5609;BME280;2826;51.354;9.588;2022-08-19T08:39:37;97963.00;;;20.96;74.85
5609;BME280;2826;51.354;9.588;2022-08-19T08:42:09;97979.97;;;21.04;76.43
5609;BME280;2826;51.354;9.588;2022-08-19T08:44:46;97981.53;;;21.16;75.12
5609;BME280;2826;51.354;9.588;2022-08-19T08:47:17;97984.06;;;21.27;75.13
5609;BME280;2826;51.354;9.588;2022-08-19T08:49:49;97997.00;;;21.40;73.25
5609;BME280;2826;51.354;9.588;2022-08-19T08:52:21;98001.09;;;21.54;73.13
5609;BME280;2826;51.354;9.588;2022-08-19T08:54:52;97993.88;;;21.66;72.81
5609;BME280;2826;51.354;9.588;2022-08-19T08:57:25;97997.25;;;21.69;71.72
5609;BME280;2826;51.354;9.588;2022-08-19T08:59:54;97988.34;;;21.70;72.92
5609;BME280;2826;51.354;9.588;2022-08-19T09:02:24;97992.78;;;21.59;72.86
5609;BME280;2826;51.354;9.588;2022-08-19T09:04:53;98000.69;;;21.59;73.43
5609;BME280;2826;51.354;9.588;2022-08-19T09:07:33;97993.88;;;21.57;73.57
5609;BME280;2826;51.354;9.588;2022-08-19T09:10:10;97995.13;;;21.62;73.70
5609;BME280;2826;51.354;9.588;2022-08-19T09:12:49;98000.00;;;21.67;72.53
5609;BME280;2826;51.354;9.588;2022-08-19T09:15:27;97990.97;;;21.70;72.82
5609;BME280;2826;51.354;9.588;2022-08-19T09:17:59;97991.16;;;21.78;72.45
5609;BME280;2826;51.354;9.588;2022-08-19T09:20:27;97995.34;;;21.80;71.77
5609;BME280;2826;51.354;9.588;2022-08-19T09:22:54;97993.38;;;21.83;71.63
5609;BME280;2826;51.354;9.588;2022-08-19T09:25:22;98000.19;;;21.85;71.05
5609;BME280;2826;51.354;9.588;2022-08-19T09:27:51;97998.41;;;21.86;69.55
5609;BME280;2826;51.354;9.588;2022-08-19T09:30:22;97997.28;;;21.88;69.70
5609;BME280;2826;51.354;9.588;2022-08-19T09:32:49;97995.78;;;21.96;69.41
5609;BME280;2826;51.354;9.588;2022-08-19T09:35:19;97992.03;;;21.98;68.76
5609;BME280;2826;51.354;9.588;2022-08-19T09:37:48;97994.50;;;22.10;67.39
5609;BME280;2826;51.354;9.588;2022-08-19T09:40:15;97995.75;;;22.15;67.60
5609;BME280;2826;51.354;9.588;2022-08-19T09:42:43;97985.19;;;22.25;66.87
5609;BME280;2826;51.354;9.588;2022-08-19T09:45:14;97988.66;;;22.26;66.16
5609;BME280;2826;51.354;9.588;2022-08-19T09:47:41;97992.97;;;22.37;65.36
5609;BME280;2826;51.354;9.588;2022-08-19T09:50:10;97994.34;;;22.41;65.53
5609;BME280;2826;51.354;9.588;2022-08-19T09:52:38;97987.25;;;22.51;65.97
5609;BME280;2826;51.354;9.588;2022-08-19T09:55:09;97990.03;;;22.69;65.59
5609;BME280;2826;51.354;9.588;2022-08-19T09:57:37;97995.44;;;22.78;63.67
5609;BME280;2826;51.354;9.588;2022-08-19T10:00:06;97991.09;;;22.87;64.16
5609;BME280;2826;51.354;9.588;2022-08-19T10:02:35;97979.53;;;22.97;62.50
5609;BME280;2826;51.354;9.588;2022-08-19T10:05:02;97985.31;;;23.11;62.55
5609;BME280;2826;51.354;9.588;2022-08-19T10:07:47;97988.88;;;23.20;62.63
5609;BME280;2826;51.354;9.588;2022-08-19T10:10:13;97988.88;;;23.20;62.33
5609;BME280;2826;51.354;9.588;2022-08-19T10:12:40;97991.94;;;23.15;61.28
5609;BME280;2826;51.354;9.588;2022-08-19T10:15:08;97978.34;;;23.10;62.34
5609;BME280;2826;51.354;9.588;2022-08-19T10:17:37;97982.69;;;23.29;62.25
5609;BME280;2826;51.354;9.588;2022-08-19T10:20:04;97971.13;;;23.40;61.69
5609;BME280;2826;51.354;9.588;2022-08-19T10:22:31;97972.97;;;23.58;59.46
5609;BME280;2826;51.354;9.588;2022-08-19T10:25:01;97967.06;;;23.64;60.35
5609;BME280;2826;51.354;9.588;2022-08-19T10:27:28;97959.59;;;23.78;60.57
5609;BME280;2826;51.354;9.588;2022-08-19T10:29:56;97967.25;;;23.99;60.16
5609;BME280;2826;51.354;9.588;2022-08-19T10:32:22;97960.44;;;23.96;59.03
5609;BME280;2826;51.354;9.588;2022-08-19T10:34:52;97966.69;;;23.95;58.71
5609;BME280;2826;51.354;9.588;2022-08-19T10:37:19;97960.66;;;24.03;59.44
5609;BME280;2826;51.354;9.588;2022-08-19T10:39:46;97956.72;;;24.25;59.25
5609;BME280;2826;51.354;9.588;2022-08-19T10:42:13;97959.38;;;24.25;57.10
5609;BME280;2826;51.354;9.588;2022-08-19T10:44:41;97966.03;;;24.11;57.78
5609;BME280;2826;51.354;9.588;2022-08-19T10:47:08;97958.94;;;24.12;57.65
5609;BME280;2826;51.354;9.588;2022-08-19T10:49:35;97962.28;;;24.14;56.39
5609;BME280;2826;51.354;9.588;2022-08-19T10:52:23;97967.44;;;24.42;57.32
5609;BME280;2826;51.354;9.588;2022-08-19T10:55:02;97966.28;;;24.71;55.02
5609;BME280;2826;51.354;9.588;2022-08-19T10:57:48;97953.31;;;24.86;53.62
5609;BME280;2826;51.354;9.588;2022-08-19T11:00:14;97957.97;;;24.84;54.38
5609;BME280;2826;51.354;9.588;2022-08-19T11:02:41;97954.34;;;24.67;54.42
5609;BME280;2826;51.354;9.588;2022-08-19T11:05:09;97958.72;;;24.50;54.19
5609;BME280;2826;51.354;9.588;2022-08-19T11:07:38;97950.91;;;24.48;54.98
5609;BME280;2826;51.354;9.588;2022-08-19T11:10:09;97935.16;;;24.73;54.21
5609;BME280;2826;51.354;9.588;2022-08-19T11:12:37;97937.25;;;24.88;53.18
5609;BME280;2826;51.354;9.588;2022-08-19T11:15:06;97932.44;;;24.91;52.47
5609;BME280;2826;51.354;9.588;2022-08-19T11:17:34;97929.69;;;25.01;52.14
5609;BME280;2826;51.354;9.588;2022-08-19T11:20:01;97927.78;;;24.85;53.07
5609;BME280;2826;51.354;9.588;2022-08-19T11:22:30;97928.31;;;24.62;53.81
5609;BME280;2826;51.354;9.588;2022-08-19T11:24:58;97901.34;;;24.14;53.63
5609;BME280;2826;51.354;9.588;2022-08-19T11:27:25;97929.41;;;24.51;53.56
5609;BME280;2826;51.354;9.588;2022-08-19T11:29:54;97919.53;;;24.88;51.84
5609;BME280;2826;51.354;9.588;2022-08-19T11:32:21;97928.69;;;25.02;50.39
5609;BME280;2826;51.354;9.588;2022-08-19T11:34:48;97923.81;;;25.33;51.21
5609;BME280;2826;51.354;9.588;2022-08-19T11:37:14;97927.38;;;25.58;49.14
5609;BME280;2826;51.354;9.588;2022-08-19T11:39:41;97932.53;;;25.60;49.37
5609;BME280;2826;51.354;9.588;2022-08-19T11:42:09;97926.50;;;25.41;48.67
5609;BME280;2826;51.354;9.588;2022-08-19T11:44:54;97926.59;;;25.23;49.93
5609;BME280;2826;51.354;9.588;2022-08-19T11:47:21;97913.75;;;25.53;49.62
5609;BME280;2826;51.354;9.588;2022-08-19T11:49:48;97925.06;;;25.72;48.83
5609;BME280;2826;51.354;9.588;2022-08-19T11:52:14;97918.28;;;25.77;47.36
5609;BME280;2826;51.354;9.588;2022-08-19T11:54:41;97922.94;;;25.83;47.50
5609;BME280;2826;51.354;9.588;2022-08-19T11:57:09;97919.28;;;25.68;47.01
5609;BME280;2826;51.354;9.588;2022-08-19T11:59:36;97925.06;;;25.72;46.76
5609;BME280;2826;51.354;9.588;2022-08-19T12:02:03;97913.81;;;26.03;47.09
5609;BME280;2826;51.354;9.588;2022-08-19T12:04:30;97916.97;;;26.40;46.04
5609;BME280;2826;51.354;9.588;2022-08-19T12:06:56;97908.97;;;26.48;45.33
5609;BME280;2826;51.354;9.588;2022-08-19T12:09:23;97901.31;;;26.53;44.48
5609;BME280;2826;51.354;9.588;2022-08-19T12:11:50;97897.94;;;26.59;45.75
5609;BME280;2826;51.354;9.588;2022-08-19T12:14:19;97898.66;;;26.45;45.12
5609;BME280;2826;51.354;9.588;2022-08-19T12:16:46;97906.84;;;26.27;44.98
5609;BME280;2826;51.354;9.588;2022-08-19T12:19:12;97899.19;;;26.32;45.04
5609;BME280;2826;51.354;9.588;2022-08-19T12:21:39;97896.00;;;26.53;44.58
5609;BME280;2826;51.354;9.588;2022-08-19T12:24:07;97898.78;;;26.68;44.25
5609;BME280;2826;51.354;9.588;2022-08-19T12:26:34;97897.03;;;26.35;44.33
5609;BME280;2826;51.354;9.588;2022-08-19T12:29:03;97892.56;;;26.28;44.78
5609;BME280;2826;51.354;9.588;2022-08-19T12:31:31;97899.34;;;26.47;46.25
5609;BME280;2826;51.354;9.588;2022-08-19T12:33:58;97888.72;;;26.47;44.05
5609;BME280;2826;51.354;9.588;2022-08-19T12:36:28;97898.88;;;26.27;44.21
5609;BME280;2826;51.354;9.588;2022-08-19T12:38:57;97896.38;;;26.33;44.94
5609;BME280;2826;51.354;9.588;2022-08-19T12:41:24;97885.84;;;26.57;44.27
5609;BME280;2826;51.354;9.588;2022-08-19T12:43:51;97892.88;;;26.98;44.30
5609;BME280;2826;51.354;9.588;2022-08-19T12:46:19;97889.00;;;27.09;43.29
5609;BME280;2826;51.354;9.588;2022-08-19T12:48:47;97886.81;;;27.12;42.98
5609;BME280;2826;51.354;9.588;2022-08-19T12:51:16;97884.69;;;27.08;43.82
5609;BME280;2826;51.354;9.588;2022-08-19T12:53:43;97878.53;;;27.07;43.31
5609;BME280;2826;51.354;9.588;2022-08-19T12:56:11;97872.75;;;26.95;43.65
5609;BME280;2826;51.354;9.588;2022-08-19T12:58:40;97868.59;;;26.93;44.28
5609;BME280;2826;51.354;9.588;2022-08-19T13:01:09;97875.97;;;26.82;43.54
5609;BME280;2826;51.354;9.588;2022-08-19T13:03:36;97875.69;;;26.69;43.51
5609;BME280;2826;51.354;9.588;2022-08-19T13:06:04;97878.38;;;26.52;43.92
5609;BME280;2826;51.354;9.588;2022-08-19T13:08:31;97877.94;;;26.32;44.73
5609;BME280;2826;51.354;9.588;2022-08-19T13:11:06;97885.25;;;26.13;44.76
5609;BME280;2826;51.354;9.588;2022-08-19T13:13:33;97882.28;;;25.83;45.17
5609;BME280;2826;51.354;9.588;2022-08-19T13:16:00;97875.81;;;26.02;45.66
5609;BME280;2826;51.354;9.588;2022-08-19T13:18:28;97864.94;;;26.54;44.96
5609;BME280;2826;51.354;9.588;2022-08-19T13:20:55;97873.31;;;26.82;43.80
5609;BME280;2826;51.354;9.588;2022-08-19T13:23:23;97871.59;;;27.30;42.09
5609;BME280;2826;51.354;9.588;2022-08-19T13:25:56;97821.28;;;27.58;41.87